createdAt,value
2024-05-09T00:00:06.691Z,13.49
2024-05-09T00:01:05.038Z,13.48
2024-05-09T00:02:05.142Z,13.49
2024-05-09T00:03:05.017Z,13.49
2024-05-09T00:04:05.079Z,13.51
2024-05-09T00:05:05.127Z,13.51
2024-05-09T00:06:05.162Z,13.49
2024-05-09T00:07:05.010Z,13.49
2024-05-09T00:08:05.087Z,13.46
2024-05-09T00:09:04.897Z,13.46
2024-05-09T00:10:07.097Z,13.46
2024-05-09T00:11:05.056Z,13.45
2024-05-09T00:12:05.205Z,13.45
2024-05-09T00:13:05.107Z,13.45
2024-05-09T00:14:04.841Z,13.41
2024-05-09T00:15:04.860Z,13.41
2024-05-09T00:16:04.817Z,13.42
2024-05-09T00:17:04.939Z,13.39
2024-05-09T00:18:05.835Z,13.41
2024-05-09T00:19:05.015Z,13.41
2024-05-09T00:20:11.088Z,13.41
2024-05-09T00:21:04.967Z,13.38
2024-05-09T00:22:04.906Z,13.39
2024-05-09T00:23:04.696Z,13.39
2024-05-09T00:24:04.695Z,13.38
2024-05-09T00:25:04.761Z,13.41
2024-05-09T00:26:04.692Z,13.39
2024-05-09T00:27:04.726Z,13.38
2024-05-09T00:28:04.649Z,13.38
2024-05-09T00:29:04.758Z,13.38
2024-05-09T00:30:07.076Z,13.36
2024-05-09T00:31:04.788Z,13.36
2024-05-09T00:32:04.750Z,13.33
2024-05-09T00:33:05.760Z,13.36
2024-05-09T00:34:04.892Z,13.33
2024-05-09T00:35:04.706Z,13.33
2024-05-09T00:36:04.768Z,13.36
2024-05-09T00:37:04.670Z,13.36
2024-05-09T00:38:04.950Z,13.33
2024-05-09T00:39:04.641Z,13.32
2024-05-09T00:40:07.298Z,13.33
2024-05-09T00:41:04.697Z,13.32
2024-05-09T00:42:04.607Z,13.30
2024-05-09T00:43:04.583Z,13.30
2024-05-09T00:44:04.649Z,13.29
2024-05-09T00:45:04.598Z,13.28
2024-05-09T00:46:04.719Z,13.28
2024-05-09T00:47:04.643Z,13.29
2024-05-09T00:48:04.841Z,13.29
2024-05-09T00:49:04.670Z,13.26
2024-05-09T00:50:07.616Z,13.25
2024-05-09T00:51:04.653Z,13.23
2024-05-09T00:52:04.511Z,13.20
2024-05-09T00:53:04.484Z,13.20
2024-05-09T00:54:04.450Z,13.19
2024-05-09T00:55:04.458Z,13.17
2024-05-09T00:56:04.615Z,13.14
2024-05-09T00:57:04.425Z,13.12
2024-05-09T00:58:04.416Z,13.11
2024-05-09T00:59:04.519Z,13.10
2024-05-09T01:00:06.068Z,13.08
2024-05-09T01:01:04.545Z,13.05
2024-05-09T01:02:04.427Z,13.03
2024-05-09T01:03:04.609Z,13.04
2024-05-09T01:04:04.500Z,13.03
2024-05-09T01:05:04.570Z,13.01
2024-05-09T01:06:04.450Z,13.00
2024-05-09T01:07:04.364Z,12.97
2024-05-09T01:08:05.181Z,12.92
2024-05-09T01:09:04.332Z,12.93
2024-05-09T01:10:07.155Z,12.92
2024-05-09T01:11:04.421Z,12.90
2024-05-09T01:12:04.413Z,12.89
2024-05-09T01:13:04.442Z,12.89
2024-05-09T01:14:04.432Z,12.86
2024-05-09T01:15:04.330Z,12.83
2024-05-09T01:16:04.330Z,12.79
2024-05-09T01:17:04.410Z,12.82
2024-05-09T01:18:04.439Z,12.79
2024-05-09T01:19:04.621Z,12.78
2024-05-09T01:20:06.201Z,12.75
2024-05-09T01:21:04.367Z,12.72
2024-05-09T01:22:04.223Z,12.71
2024-05-09T01:23:04.365Z,12.72
2024-05-09T01:24:04.192Z,12.71
2024-05-09T01:25:04.222Z,12.70
2024-05-09T01:26:04.218Z,12.70
2024-05-09T01:27:04.200Z,12.70
2024-05-09T01:28:04.205Z,12.70
2024-05-09T01:29:04.293Z,12.68
2024-05-09T01:30:06.955Z,12.68
2024-05-09T01:31:04.141Z,12.68
2024-05-09T01:32:04.312Z,12.70
2024-05-09T01:33:04.649Z,12.68
2024-05-09T01:34:04.117Z,12.70
2024-05-09T01:35:04.173Z,12.65
2024-05-09T01:36:04.093Z,12.67
2024-05-09T01:37:04.071Z,12.67
2024-05-09T01:38:04.304Z,12.64
2024-05-09T01:39:04.048Z,12.65
2024-05-09T01:40:07.337Z,12.64
2024-05-09T01:41:04.043Z,12.64
2024-05-09T01:42:03.987Z,12.65
2024-05-09T01:43:03.996Z,12.64
2024-05-09T01:44:04.190Z,12.65
2024-05-09T01:45:04.066Z,12.67
2024-05-09T01:46:03.952Z,12.65
2024-05-09T01:47:04.047Z,12.64
2024-05-09T01:48:04.350Z,12.64
2024-05-09T01:49:04.169Z,12.64
2024-05-09T01:50:06.671Z,12.62
2024-05-09T01:51:03.980Z,12.64
2024-05-09T01:52:03.934Z,12.62
2024-05-09T01:53:03.965Z,12.64
2024-05-09T01:54:03.965Z,12.60
2024-05-09T01:55:06.330Z,12.60
2024-05-09T01:56:03.937Z,12.60
2024-05-09T01:57:03.843Z,12.60
2024-05-09T01:58:03.975Z,12.60
2024-05-09T01:59:03.966Z,12.62
2024-05-09T02:00:03.927Z,12.60
2024-05-09T02:01:03.900Z,12.62
2024-05-09T02:02:04.185Z,12.62
2024-05-09T02:03:04.061Z,12.64
2024-05-09T02:04:04.186Z,12.59
2024-05-09T02:05:03.911Z,12.59
2024-05-09T02:06:03.946Z,12.57
2024-05-09T02:07:03.800Z,12.57
2024-05-09T02:08:03.904Z,12.59
2024-05-09T02:09:03.881Z,12.57
2024-05-09T02:10:08.547Z,12.59
2024-05-09T02:11:03.957Z,12.56
2024-05-09T02:12:03.892Z,12.56
2024-05-09T02:13:03.834Z,12.54
2024-05-09T02:14:03.815Z,12.52
2024-05-09T02:15:03.696Z,12.52
2024-05-09T02:16:03.883Z,12.53
2024-05-09T02:17:03.708Z,12.53
2024-05-09T02:18:03.929Z,12.52
2024-05-09T02:19:03.954Z,12.52
2024-05-09T02:20:06.056Z,12.53
2024-05-09T02:21:03.788Z,12.53
2024-05-09T02:22:03.657Z,12.52
2024-05-09T02:23:04.649Z,12.50
2024-05-09T02:24:03.620Z,12.50
2024-05-09T02:25:03.618Z,12.49
2024-05-09T02:26:03.621Z,12.47
2024-05-09T02:27:03.600Z,12.47
2024-05-09T02:28:03.696Z,12.49
2024-05-09T02:29:03.587Z,12.47
2024-05-09T02:30:04.724Z,12.47
2024-05-09T02:31:03.536Z,12.46
2024-05-09T02:32:03.602Z,12.47
2024-05-09T02:33:03.779Z,12.45
2024-05-09T02:34:03.786Z,12.45
2024-05-09T02:35:03.620Z,12.45
2024-05-09T02:36:03.500Z,12.42
2024-05-09T02:37:03.498Z,12.45
2024-05-09T02:38:03.680Z,12.42
2024-05-09T02:39:03.513Z,12.41
2024-05-09T02:40:04.450Z,12.39
2024-05-09T02:41:03.543Z,12.41
2024-05-09T02:42:03.423Z,12.38
2024-05-09T02:43:03.563Z,12.39
2024-05-09T02:44:03.457Z,12.38
2024-05-09T02:45:03.497Z,12.39
2024-05-09T02:46:03.379Z,12.38
2024-05-09T02:47:03.413Z,12.39
2024-05-09T02:48:03.670Z,12.38
2024-05-09T02:49:03.453Z,12.39
2024-05-09T02:50:04.557Z,12.39
2024-05-09T02:51:03.507Z,12.38
2024-05-09T02:52:03.353Z,12.39
2024-05-09T02:53:03.469Z,12.42
2024-05-09T02:54:03.359Z,12.42
2024-05-09T02:55:03.318Z,12.41
2024-05-09T02:56:03.372Z,12.42
2024-05-09T02:57:03.306Z,12.45
2024-05-09T02:58:03.340Z,12.45
2024-05-09T02:59:03.422Z,12.42
2024-05-09T03:00:03.693Z,12.41
2024-05-09T03:01:03.310Z,12.42
2024-05-09T03:02:03.400Z,12.41
2024-05-09T03:03:03.584Z,12.41
2024-05-09T03:04:03.351Z,12.41
2024-05-09T03:05:03.282Z,12.41
2024-05-09T03:06:03.297Z,12.39
2024-05-09T03:07:03.309Z,12.39
2024-05-09T03:08:03.262Z,12.37
2024-05-09T03:09:03.190Z,12.38
2024-05-09T03:10:03.502Z,12.35
2024-05-09T03:11:03.186Z,12.37
2024-05-09T03:12:03.545Z,12.37
2024-05-09T03:13:03.161Z,12.37
2024-05-09T03:14:03.118Z,12.35
2024-05-09T03:15:03.182Z,12.37
2024-05-09T03:16:03.119Z,12.38
2024-05-09T03:17:03.007Z,12.39
2024-05-09T03:18:03.470Z,12.41
2024-05-09T03:19:03.185Z,12.39
2024-05-09T03:20:05.025Z,12.41
2024-05-09T03:21:03.297Z,12.39
2024-05-09T03:22:03.143Z,12.39
2024-05-09T03:23:03.589Z,12.41
2024-05-09T03:24:03.017Z,12.41
2024-05-09T03:25:02.981Z,12.39
2024-05-09T03:26:03.049Z,12.39
2024-05-09T03:27:03.089Z,12.39
2024-05-09T03:28:02.978Z,12.41
2024-05-09T03:29:03.075Z,12.41
2024-05-09T03:30:05.485Z,12.41
2024-05-09T03:31:02.925Z,12.41
2024-05-09T03:32:03.088Z,12.41
2024-05-09T03:33:03.236Z,12.41
2024-05-09T03:34:03.022Z,12.42
2024-05-09T03:35:02.848Z,12.45
2024-05-09T03:36:02.929Z,12.42
2024-05-09T03:37:03.015Z,12.42
2024-05-09T03:38:03.011Z,12.42
2024-05-09T03:39:02.900Z,12.42
2024-05-09T03:40:03.055Z,12.39
2024-05-09T03:41:02.958Z,12.41
2024-05-09T03:42:02.914Z,12.39
2024-05-09T03:43:02.824Z,12.42
2024-05-09T03:44:02.916Z,12.45
2024-05-09T03:45:02.809Z,12.46
2024-05-09T03:46:02.815Z,12.45
2024-05-09T03:47:02.935Z,12.47
2024-05-09T03:48:02.918Z,12.47
2024-05-09T03:49:02.882Z,12.47
2024-05-09T03:50:04.422Z,12.46
2024-05-09T03:51:02.830Z,12.47
2024-05-09T03:52:02.789Z,12.47
2024-05-09T03:53:02.736Z,12.49
2024-05-09T03:54:02.673Z,12.47
2024-05-09T03:55:02.720Z,12.47
2024-05-09T03:56:02.835Z,12.49
2024-05-09T03:57:02.678Z,12.46
2024-05-09T03:58:02.668Z,12.49
2024-05-09T03:59:02.686Z,12.49
2024-05-09T04:00:03.008Z,12.50
2024-05-09T04:01:02.812Z,12.49
2024-05-09T04:02:02.709Z,12.50
2024-05-09T04:03:03.294Z,12.52
2024-05-09T04:04:02.696Z,12.52
2024-05-09T04:05:02.706Z,12.52
2024-05-09T04:06:02.766Z,12.52
2024-05-09T04:07:02.619Z,12.52
2024-05-09T04:08:02.767Z,12.53
2024-05-09T04:09:02.622Z,12.54
2024-05-09T04:10:04.008Z,12.56
2024-05-09T04:11:02.734Z,12.59
2024-05-09T04:12:02.673Z,12.59
2024-05-09T04:13:03.178Z,12.56
2024-05-09T04:14:02.549Z,12.59
2024-05-09T04:15:02.485Z,12.62
2024-05-09T04:16:02.471Z,12.62
2024-05-09T04:17:02.571Z,12.64
2024-05-09T04:18:02.984Z,12.65
2024-05-09T04:19:02.538Z,12.64
2024-05-09T04:20:02.390Z,12.62
2024-05-09T04:21:02.671Z,12.65
2024-05-09T04:22:02.479Z,12.65
2024-05-09T04:23:02.502Z,12.68
2024-05-09T04:24:02.415Z,12.70
2024-05-09T04:25:02.547Z,12.68
2024-05-09T04:26:02.412Z,12.70
2024-05-09T04:27:02.392Z,12.70
2024-05-09T04:28:02.488Z,12.70
2024-05-09T04:29:02.452Z,12.71
2024-05-09T04:30:02.512Z,12.72
2024-05-09T04:31:02.510Z,12.72
2024-05-09T04:32:02.563Z,12.74
2024-05-09T04:33:02.548Z,12.75
2024-05-09T04:34:02.411Z,12.75
2024-05-09T04:35:02.460Z,12.75
2024-05-09T04:36:02.261Z,12.77
2024-05-09T04:37:02.295Z,12.75
2024-05-09T04:38:02.283Z,12.77
2024-05-09T04:39:02.268Z,12.75
2024-05-09T04:40:02.391Z,12.77
2024-05-09T04:41:02.285Z,12.78
2024-05-09T04:42:02.235Z,12.77
2024-05-09T04:43:02.344Z,12.78
2024-05-09T04:44:02.223Z,12.78
2024-05-09T04:45:02.307Z,12.78
2024-05-09T04:46:02.320Z,12.77
2024-05-09T04:47:02.220Z,12.78
2024-05-09T04:48:02.688Z,12.79
2024-05-09T04:49:02.257Z,12.82
2024-05-09T04:50:02.610Z,12.82
2024-05-09T04:51:02.242Z,12.79
2024-05-09T04:52:02.183Z,12.82
2024-05-09T04:53:02.227Z,12.79
2024-05-09T04:54:02.163Z,12.79
2024-05-09T04:55:02.263Z,12.82
2024-05-09T04:56:02.126Z,12.82
2024-05-09T04:57:02.077Z,12.82
2024-05-09T04:58:02.056Z,12.85
2024-05-09T04:59:02.273Z,12.85
2024-05-09T05:00:02.929Z,12.85
2024-05-09T05:01:02.157Z,12.86
2024-05-09T05:02:02.191Z,12.90
2024-05-09T05:03:02.200Z,12.87
2024-05-09T05:04:02.215Z,12.90
2024-05-09T05:05:02.270Z,12.90
2024-05-09T05:06:02.174Z,12.92
2024-05-09T05:07:03.009Z,12.92
2024-05-09T05:08:02.010Z,12.92
2024-05-09T05:09:02.123Z,12.92
2024-05-09T05:10:03.251Z,12.93
2024-05-09T05:11:02.198Z,12.96
2024-05-09T05:12:02.192Z,13.00
2024-05-09T05:13:01.989Z,13.00
2024-05-09T05:14:02.104Z,12.97
2024-05-09T05:15:02.015Z,12.95
2024-05-09T05:16:01.934Z,12.96
2024-05-09T05:17:01.933Z,12.97
2024-05-09T05:18:02.038Z,12.97
2024-05-09T05:19:02.083Z,12.96
2024-05-09T05:20:02.158Z,12.97
2024-05-09T05:21:02.011Z,13.03
2024-05-09T05:22:01.877Z,13.05
2024-05-09T05:23:01.942Z,13.10
2024-05-09T05:24:01.913Z,13.17
2024-05-09T05:25:01.883Z,13.19
2024-05-09T05:26:01.834Z,13.23
2024-05-09T05:27:01.842Z,13.28
2024-05-09T05:28:01.760Z,13.28
2024-05-09T05:29:01.929Z,13.30
2024-05-09T05:30:01.752Z,13.30
2024-05-09T05:31:01.790Z,13.32
2024-05-09T05:32:01.876Z,13.32
2024-05-09T05:33:02.332Z,13.38
2024-05-09T05:34:01.811Z,13.44
2024-05-09T05:35:01.772Z,13.57
2024-05-09T05:36:01.706Z,13.69
2024-05-09T05:37:01.703Z,13.82
2024-05-09T05:38:01.780Z,13.99
2024-05-09T05:39:01.770Z,14.18
2024-05-09T05:40:01.681Z,14.35
2024-05-09T05:41:01.722Z,14.51
2024-05-09T05:42:01.681Z,14.58
2024-05-09T05:43:01.650Z,14.58
2024-05-09T05:44:01.756Z,14.62
2024-05-09T05:45:01.653Z,14.55
2024-05-09T05:46:01.640Z,14.50
2024-05-09T05:47:01.676Z,14.57
2024-05-09T05:48:01.908Z,14.73
2024-05-09T05:49:01.787Z,14.64
2024-05-09T05:50:01.675Z,14.54
2024-05-09T05:51:04.196Z,14.47
2024-05-09T05:52:01.603Z,14.43
2024-05-09T05:53:01.932Z,14.39
2024-05-09T05:54:01.514Z,14.33
2024-05-09T05:55:01.564Z,14.27
2024-05-09T05:56:01.681Z,14.22
2024-05-09T05:57:01.574Z,14.17
2024-05-09T05:58:01.584Z,14.14
2024-05-09T05:59:01.500Z,14.10
2024-05-09T06:00:01.530Z,14.07
2024-05-09T06:01:01.554Z,14.04
2024-05-09T06:02:01.537Z,14.06
2024-05-09T06:03:01.714Z,14.04
2024-05-09T06:04:01.504Z,14.04
2024-05-09T06:05:01.614Z,14.03
2024-05-09T06:06:01.531Z,14.03
2024-05-09T06:07:01.479Z,14.02
2024-05-09T06:08:01.521Z,14.02
2024-05-09T06:09:01.394Z,14.02
2024-05-09T06:10:01.375Z,14.00
2024-05-09T06:11:01.540Z,14.00
2024-05-09T06:12:01.588Z,14.00
2024-05-09T06:13:01.432Z,14.03
2024-05-09T06:14:01.406Z,14.03
2024-05-09T06:15:01.376Z,14.03
2024-05-09T06:16:01.308Z,14.03
2024-05-09T06:17:01.388Z,14.04
2024-05-09T06:18:01.985Z,14.03
2024-05-09T06:19:01.404Z,14.06
2024-05-09T06:20:01.433Z,14.12
2024-05-09T06:21:01.304Z,14.25
2024-05-09T06:22:01.272Z,14.33
2024-05-09T06:23:01.529Z,14.39
2024-05-09T06:24:03.783Z,14.47
2024-05-09T06:25:01.275Z,14.55
2024-05-09T06:26:01.290Z,14.52
2024-05-09T06:27:01.266Z,14.57
2024-05-09T06:28:01.406Z,14.60
2024-05-09T06:29:01.214Z,14.70
2024-05-09T06:30:01.196Z,14.70
2024-05-09T06:31:01.246Z,14.69
2024-05-09T06:32:01.353Z,14.70
2024-05-09T06:33:01.212Z,14.72
2024-05-09T06:34:01.356Z,14.73
2024-05-09T06:35:01.200Z,14.73
2024-05-09T06:36:01.159Z,14.75
2024-05-09T06:37:01.115Z,14.75
2024-05-09T06:38:01.592Z,14.78
2024-05-09T06:39:01.110Z,14.81
2024-05-09T06:40:01.095Z,14.83
2024-05-09T06:41:01.139Z,14.81
2024-05-09T06:42:01.056Z,14.78
2024-05-09T06:43:01.025Z,14.80
2024-05-09T06:44:01.162Z,14.89
2024-05-09T06:45:01.062Z,14.94
2024-05-09T06:46:01.019Z,14.95
2024-05-09T06:47:01.117Z,15.10
2024-05-09T06:48:01.210Z,15.23
2024-05-09T06:49:01.370Z,15.47
2024-05-09T06:50:01.046Z,15.71
2024-05-09T06:51:01.098Z,15.62
2024-05-09T06:52:01.010Z,15.54
2024-05-09T06:53:01.211Z,15.54
2024-05-09T06:54:00.957Z,15.53
2024-05-09T06:55:00.966Z,15.49
2024-05-09T06:56:00.989Z,15.49
2024-05-09T06:57:00.924Z,15.67
2024-05-09T06:58:01.029Z,15.90
2024-05-09T06:59:01.129Z,16.11
2024-05-09T07:00:01.107Z,16.25
2024-05-09T07:01:00.949Z,16.24
2024-05-09T07:02:00.916Z,16.24
2024-05-09T07:03:04.799Z,16.28
2024-05-09T07:04:00.948Z,16.49
2024-05-09T07:05:01.143Z,16.67
2024-05-09T07:06:00.921Z,16.70
2024-05-09T07:07:00.797Z,16.71
2024-05-09T07:08:01.031Z,16.70
2024-05-09T07:09:00.819Z,16.73
2024-05-09T07:10:00.826Z,16.73
2024-05-09T07:11:00.984Z,16.71
2024-05-09T07:12:00.851Z,16.73
2024-05-09T07:13:00.839Z,16.71
2024-05-09T07:14:00.901Z,16.71
2024-05-09T07:15:00.655Z,16.68
2024-05-09T07:16:00.672Z,16.67
2024-05-09T07:17:00.706Z,16.66
2024-05-09T07:18:00.922Z,16.63
2024-05-09T07:19:00.781Z,16.63
2024-05-09T07:20:00.818Z,16.61
2024-05-09T07:21:00.686Z,16.61
2024-05-09T07:22:00.748Z,16.63
2024-05-09T07:23:00.855Z,16.66
2024-05-09T07:24:00.681Z,16.68
2024-05-09T07:25:00.642Z,16.76
2024-05-09T07:26:00.746Z,16.82
2024-05-09T07:27:00.662Z,16.86
2024-05-09T07:28:00.703Z,16.89
2024-05-09T07:29:00.664Z,16.97
2024-05-09T07:30:00.602Z,17.04
2024-05-09T07:31:00.552Z,17.12
2024-05-09T07:32:00.568Z,17.22
2024-05-09T07:33:01.015Z,17.38
2024-05-09T07:34:00.861Z,17.56
2024-05-09T07:35:00.578Z,17.75
2024-05-09T07:36:00.489Z,17.90
2024-05-09T07:37:00.514Z,18.05
2024-05-09T07:38:00.714Z,18.15
2024-05-09T07:39:00.441Z,18.21
2024-05-09T07:40:00.594Z,18.20
2024-05-09T07:41:00.534Z,18.07
2024-05-09T07:42:00.501Z,17.89
2024-05-09T07:43:00.435Z,17.74
2024-05-09T07:44:00.456Z,17.58
2024-05-09T07:45:20.552Z,17.51
2024-05-09T07:46:45.411Z,17.44
2024-05-09T07:49:43.601Z,17.41
2024-05-09T07:53:07.596Z,17.34
2024-05-09T07:53:45.201Z,17.36
2024-05-09T07:53:56.096Z,17.28
2024-05-09T07:54:51.563Z,17.28
2024-05-09T07:55:51.629Z,17.33
2024-05-09T07:56:51.654Z,17.34
2024-05-09T07:57:51.828Z,17.37
2024-05-09T07:58:51.911Z,17.36
2024-05-09T07:59:51.451Z,17.31
2024-05-09T08:00:51.534Z,17.30
2024-05-09T08:01:51.567Z,17.28
2024-05-09T08:02:51.533Z,17.28
2024-05-09T08:03:51.530Z,17.31
2024-05-09T08:04:51.415Z,17.28
2024-05-09T08:05:51.460Z,17.33
2024-05-09T08:06:51.478Z,17.36
2024-05-09T08:07:51.434Z,17.36
2024-05-09T08:08:51.309Z,17.36
2024-05-09T08:09:51.378Z,17.34
2024-05-09T08:10:51.408Z,17.30
2024-05-09T08:11:51.537Z,17.31
2024-05-09T08:12:51.570Z,17.33
2024-05-09T08:13:51.277Z,17.37
2024-05-09T08:14:51.312Z,17.38
2024-05-09T08:15:51.298Z,17.37
2024-05-09T08:16:51.254Z,17.38
2024-05-09T08:17:51.447Z,17.36
2024-05-09T08:18:51.376Z,17.37
2024-05-09T08:19:51.415Z,17.38
2024-05-09T08:20:51.296Z,17.36
2024-05-09T08:21:51.229Z,17.37
2024-05-09T08:22:51.226Z,17.37
2024-05-09T08:23:51.290Z,17.40
2024-05-09T08:24:51.349Z,17.41
2024-05-09T08:25:51.242Z,17.43
2024-05-09T08:26:51.312Z,17.46
2024-05-09T08:27:51.269Z,17.48
2024-05-09T08:28:51.192Z,17.48
2024-05-09T08:29:51.264Z,17.51
2024-05-09T08:30:51.397Z,17.52
2024-05-09T08:31:51.390Z,17.54
2024-05-09T08:32:51.355Z,17.54
2024-05-09T08:33:51.357Z,17.54
2024-05-09T08:34:51.334Z,17.56
2024-05-09T08:35:51.181Z,17.58
2024-05-09T08:36:51.103Z,17.56
2024-05-09T08:37:51.063Z,17.56
2024-05-09T08:38:51.064Z,17.55
2024-05-09T08:39:51.053Z,17.56
2024-05-09T08:40:51.112Z,17.56
2024-05-09T08:41:51.253Z,17.58
2024-05-09T08:42:51.137Z,17.62
2024-05-09T08:43:50.984Z,17.59
2024-05-09T08:44:50.976Z,17.62
2024-05-09T08:45:51.043Z,17.63
2024-05-09T08:46:51.139Z,17.66
2024-05-09T08:47:51.206Z,17.70
2024-05-09T08:48:51.117Z,17.72
2024-05-09T08:49:51.084Z,17.75
2024-05-09T08:50:51.050Z,17.78
2024-05-09T08:51:51.152Z,17.81
2024-05-09T08:52:50.871Z,17.84
2024-05-09T08:53:50.882Z,17.86
2024-05-09T08:54:50.996Z,17.87
2024-05-09T08:55:50.872Z,17.90
2024-05-09T08:56:50.999Z,17.93
2024-05-09T08:57:50.998Z,17.97
2024-05-09T08:58:50.918Z,18.00
2024-05-09T08:59:50.864Z,18.03
2024-05-09T09:00:51.016Z,18.08
2024-05-09T09:01:50.907Z,18.12
2024-05-09T09:02:50.973Z,18.17
2024-05-09T09:03:50.926Z,18.27
2024-05-09T09:04:50.852Z,18.36
2024-05-09T09:05:50.858Z,18.44
2024-05-09T09:06:52.546Z,18.52
2024-05-09T09:07:50.786Z,18.62
2024-05-09T09:08:50.803Z,18.84
2024-05-09T09:09:50.779Z,19.19
2024-05-09T09:10:50.802Z,19.46
2024-05-09T09:11:50.801Z,19.68
2024-05-09T09:12:50.809Z,19.81
2024-05-09T09:13:50.788Z,19.96
2024-05-09T09:14:50.761Z,20.06
2024-05-09T09:15:50.922Z,20.16
2024-05-09T09:16:50.700Z,20.21
2024-05-09T09:17:50.775Z,20.28
2024-05-09T09:18:50.828Z,20.38
2024-05-09T09:19:50.792Z,20.50
2024-05-09T09:20:50.773Z,20.59
2024-05-09T09:21:50.658Z,20.76
2024-05-09T09:22:50.593Z,20.98
2024-05-09T09:23:50.691Z,21.25
2024-05-09T09:24:50.737Z,21.56
2024-05-09T09:25:50.982Z,22.00
2024-05-09T09:26:50.535Z,22.47
2024-05-09T09:27:50.669Z,22.95
2024-05-09T09:28:50.687Z,23.40
2024-05-09T09:29:50.665Z,23.80
2024-05-09T09:30:50.880Z,24.12
2024-05-09T09:31:50.600Z,24.37
2024-05-09T09:32:50.669Z,24.52
2024-05-09T09:33:50.810Z,24.68
2024-05-09T09:34:50.544Z,24.68
2024-05-09T09:35:50.570Z,24.71
2024-05-09T09:36:50.679Z,24.68
2024-05-09T09:37:50.463Z,24.61
2024-05-09T09:38:50.554Z,24.65
2024-05-09T09:39:50.600Z,24.65
2024-05-09T09:40:50.850Z,24.46
2024-05-09T09:41:50.499Z,24.34
2024-05-09T09:42:50.484Z,24.18
2024-05-09T09:43:50.500Z,24.13
2024-05-09T09:44:58.178Z,24.00
2024-05-09T09:45:50.671Z,23.93
2024-05-09T09:46:50.450Z,23.75
2024-05-09T09:47:50.584Z,23.61
2024-05-09T09:48:50.615Z,23.40
2024-05-09T09:49:50.573Z,23.19
2024-05-09T09:50:50.554Z,23.05
2024-05-09T09:51:50.580Z,22.97
2024-05-09T09:52:50.328Z,22.98
2024-05-09T09:53:50.334Z,23.00
2024-05-09T09:54:50.447Z,23.01
2024-05-09T09:55:50.295Z,23.00
2024-05-09T09:56:50.278Z,23.04
2024-05-09T09:57:50.393Z,23.04
2024-05-09T09:58:50.327Z,23.10
2024-05-09T09:59:50.328Z,23.16
2024-05-09T10:00:50.476Z,23.16
2024-05-09T10:01:50.435Z,23.19
2024-05-09T10:02:50.475Z,23.20
2024-05-09T10:03:50.386Z,23.15
2024-05-09T10:04:50.332Z,23.16
2024-05-09T10:05:50.504Z,23.15
2024-05-09T10:06:50.367Z,23.10
2024-05-09T10:07:50.220Z,23.12
2024-05-09T10:08:50.274Z,23.16
2024-05-09T10:09:50.294Z,23.22
2024-05-09T10:10:50.602Z,23.22
2024-05-09T10:11:52.368Z,23.27
2024-05-09T10:12:50.186Z,23.25
2024-05-09T10:13:50.129Z,23.23
2024-05-09T10:14:50.103Z,23.33
2024-05-09T10:15:50.223Z,23.27
2024-05-09T10:16:50.108Z,23.27
2024-05-09T10:17:50.244Z,23.32
2024-05-09T10:18:50.320Z,23.35
2024-05-09T10:19:50.246Z,23.35
2024-05-09T10:20:50.310Z,23.39
2024-05-09T10:21:50.244Z,23.38
2024-05-09T10:22:50.039Z,23.42
2024-05-09T10:23:50.017Z,23.46
2024-05-09T10:24:50.139Z,23.50
2024-05-09T10:25:50.042Z,23.54
2024-05-09T10:26:50.035Z,23.58
2024-05-09T10:27:50.221Z,23.60
2024-05-09T10:28:50.042Z,23.51
2024-05-09T10:29:49.994Z,23.50
2024-05-09T10:30:50.529Z,23.50
2024-05-09T10:31:50.000Z,23.48
2024-05-09T10:32:50.050Z,23.47
2024-05-09T10:33:51.196Z,23.40
2024-05-09T10:34:49.972Z,23.32
2024-05-09T10:35:50.103Z,23.19
2024-05-09T10:36:50.021Z,23.19
2024-05-09T10:37:50.007Z,23.17
2024-05-09T10:38:50.011Z,23.25
2024-05-09T10:39:50.003Z,23.35
2024-05-09T10:40:50.219Z,23.43
2024-05-09T10:41:50.005Z,23.53
2024-05-09T10:42:50.093Z,23.58
2024-05-09T10:43:49.821Z,23.69
2024-05-09T10:44:49.849Z,23.79
2024-05-09T10:45:50.075Z,23.90
2024-05-09T10:46:49.863Z,23.98
2024-05-09T10:47:49.957Z,24.10
2024-05-09T10:48:50.177Z,24.20
2024-05-09T10:49:50.100Z,24.28
2024-05-09T10:50:49.767Z,24.28
2024-05-09T10:51:49.773Z,24.34
2024-05-09T10:52:49.749Z,24.40
2024-05-09T10:53:49.757Z,24.43
2024-05-09T10:54:49.821Z,24.45
2024-05-09T10:55:49.728Z,24.40
2024-05-09T10:56:49.703Z,24.28
2024-05-09T10:57:49.900Z,24.10
2024-05-09T10:58:49.657Z,23.94
2024-05-09T10:59:49.948Z,23.79
2024-05-09T11:00:49.904Z,23.72
2024-05-09T11:01:49.871Z,23.61
2024-05-09T11:02:49.735Z,23.54
2024-05-09T11:03:50.037Z,23.69
2024-05-09T11:04:49.762Z,23.75
2024-05-09T11:05:49.690Z,23.78
2024-05-09T11:06:49.691Z,23.78
2024-05-09T11:07:49.606Z,23.78
2024-05-09T11:08:49.600Z,23.76
2024-05-09T11:09:49.639Z,23.79
2024-05-09T11:10:49.660Z,23.80
2024-05-09T11:11:49.558Z,23.84
2024-05-09T11:12:49.565Z,23.73
2024-05-09T11:13:49.529Z,23.73
2024-05-09T11:14:49.623Z,23.68
2024-05-09T11:15:49.676Z,23.63
2024-05-09T11:16:49.602Z,23.51
2024-05-09T11:17:49.700Z,23.46
2024-05-09T11:18:49.684Z,23.46
2024-05-09T11:19:49.657Z,23.39
2024-05-09T11:20:49.536Z,23.36
2024-05-09T11:21:49.470Z,23.38
2024-05-09T11:22:49.532Z,23.40
2024-05-09T11:23:49.479Z,23.54
2024-05-09T11:24:49.558Z,23.65
2024-05-09T11:25:49.428Z,23.75
2024-05-09T11:26:49.444Z,23.84
2024-05-09T11:27:49.473Z,23.88
2024-05-09T11:28:49.411Z,23.97
2024-05-09T11:29:49.431Z,24.02
2024-05-09T11:30:49.420Z,24.10
2024-05-09T11:31:49.548Z,24.15
2024-05-09T11:32:49.480Z,24.09
2024-05-09T11:33:49.465Z,24.00
2024-05-09T11:34:49.374Z,23.97
2024-05-09T11:35:49.319Z,23.95
2024-05-09T11:36:49.388Z,23.83
2024-05-09T11:37:49.334Z,23.83
2024-05-09T11:38:49.637Z,23.88
2024-05-09T11:39:49.523Z,23.93
2024-05-09T11:40:49.302Z,23.88
2024-05-09T11:41:49.341Z,23.91
2024-05-09T11:42:51.542Z,23.88
2024-05-09T11:43:49.419Z,23.88
2024-05-09T11:44:49.385Z,23.78
2024-05-09T11:45:49.353Z,23.76
2024-05-09T11:46:49.381Z,23.70
2024-05-09T11:47:49.552Z,23.66
2024-05-09T11:48:49.630Z,23.63
2024-05-09T11:49:49.396Z,23.70
2024-05-09T11:50:49.260Z,23.76
2024-05-09T11:51:49.221Z,23.80
2024-05-09T11:52:49.361Z,23.79
2024-05-09T11:53:49.318Z,23.85
2024-05-09T11:54:49.398Z,23.90
2024-05-09T11:55:49.249Z,23.95
2024-05-09T11:56:49.187Z,24.02
2024-05-09T11:57:49.246Z,24.12
2024-05-09T11:58:49.166Z,24.18
2024-05-09T11:59:49.162Z,24.22
2024-05-09T12:00:49.233Z,24.28
2024-05-09T12:01:49.333Z,24.30
2024-05-09T12:02:49.126Z,24.30
2024-05-09T12:03:49.635Z,24.30
2024-05-09T12:04:49.194Z,24.30
2024-05-09T12:05:49.165Z,24.34
2024-05-09T12:06:49.256Z,24.31
2024-05-09T12:07:49.126Z,24.31
2024-05-09T12:08:49.092Z,24.32
2024-05-09T12:09:49.142Z,24.34
2024-05-09T12:10:49.371Z,24.34
2024-05-09T12:11:49.141Z,24.39
2024-05-09T12:12:49.065Z,24.42
2024-05-09T12:13:49.000Z,24.49
2024-05-09T12:14:49.004Z,24.55
2024-05-09T12:15:49.040Z,24.62
2024-05-09T12:16:49.009Z,24.61
2024-05-09T12:17:50.687Z,24.61
2024-05-09T12:18:49.041Z,24.67
2024-05-09T12:19:48.979Z,24.65
2024-05-09T12:20:48.947Z,24.67
2024-05-09T12:21:49.058Z,24.65
2024-05-09T12:22:48.890Z,24.69
2024-05-09T12:23:48.896Z,24.73
2024-05-09T12:24:48.976Z,24.64
2024-05-09T12:25:48.887Z,24.22
2024-05-09T12:26:48.857Z,24.00
2024-05-09T12:27:48.943Z,23.87
2024-05-09T12:28:48.845Z,23.73
2024-05-09T12:29:48.907Z,23.68
2024-05-09T12:30:48.945Z,23.54
2024-05-09T12:31:48.875Z,23.63
2024-05-09T12:32:49.086Z,23.75
2024-05-09T12:33:48.847Z,23.79
2024-05-09T12:34:49.002Z,23.85
2024-05-09T12:35:50.876Z,23.90
2024-05-09T12:36:48.788Z,23.93
2024-05-09T12:37:48.803Z,23.91
2024-05-09T12:38:48.764Z,23.90
2024-05-09T12:39:48.777Z,23.93
2024-05-09T12:40:48.981Z,23.97
2024-05-09T12:41:48.866Z,23.98
2024-05-09T12:42:48.730Z,23.97
2024-05-09T12:43:48.792Z,24.02
2024-05-09T12:44:48.821Z,24.05
2024-05-09T12:45:48.751Z,24.03
2024-05-09T12:46:48.725Z,24.05
2024-05-09T12:47:48.835Z,23.98
2024-05-09T12:48:49.015Z,23.95
2024-05-09T12:49:48.887Z,23.95
2024-05-09T12:50:48.692Z,23.94
2024-05-09T12:51:48.699Z,23.85
2024-05-09T12:52:48.724Z,23.80
2024-05-09T12:53:48.722Z,23.83
2024-05-09T12:54:48.849Z,23.88
2024-05-09T12:55:56.414Z,23.93